Time;durP1;ratioP1;P1;durP2;ratioP2;P2;SDS_P1;SDS_P2;PMS_P1;PMS_P2;Temp;Humidity;BMP_temperature;BMP_pressure;BME280_temperature;BME280_humidity;BME280_pressure;Samples;Min_cycle;Max_cycle;Signal;HPM_P1;HPM_P2
2023/08/04 00:02:12;;;;;;;13.30;5.17;;;;;;;;;;5003096;28;20192;-80
2023/08/04 00:04:38;;;;;;;12.47;4.87;;;;;;;;;;5003056;28;20177;-81
2023/08/04 00:07:04;;;;;;;12.80;5.07;;;;;;;;;;5019026;28;20231;-81
2023/08/04 00:09:30;;;;;;;13.03;5.10;;;;;;;;;;5002960;28;20259;-81
2023/08/04 00:11:56;;;;;;;11.67;4.60;;;;;;;;;;5002999;28;20193;-77
2023/08/04 00:14:22;;;;;;;13.83;5.10;;;;;;;;;;5020142;28;20185;-77
2023/08/04 00:16:48;;;;;;;18.83;5.13;;;;;;;;;;5003030;28;20224;-77
2023/08/04 00:19:14;;;;;;;18.30;4.87;;;;;;;;;;5003086;28;20219;-77
2023/08/04 00:21:40;;;;;;;12.30;5.20;;;;;;;;;;5014334;23;20258;-77
2023/08/04 00:24:06;;;;;;;12.77;5.27;;;;;;;;;;5035422;28;20184;-77
2023/08/04 00:26:32;;;;;;;14.87;4.80;;;;;;;;;;5050387;28;20188;-77
2023/08/04 00:28:58;;;;;;;16.10;5.10;;;;;;;;;;5025328;28;20274;-76
2023/08/04 00:31:24;;;;;;;14.00;4.60;;;;;;;;;;5022160;28;20265;-76
2023/08/04 00:33:50;;;;;;;11.13;4.73;;;;;;;;;;5003380;28;20230;-76
2023/08/04 00:36:16;;;;;;;14.87;5.47;;;;;;;;;;5027096;28;20177;-77
2023/08/04 00:38:42;;;;;;;12.83;5.07;;;;;;;;;;5002459;28;20223;-76
2023/08/04 00:41:08;;;;;;;14.73;5.10;;;;;;;;;;5036515;28;20234;-76
2023/08/04 00:43:34;;;;;;;14.37;5.20;;;;;;;;;;5019645;28;20208;-77
2023/08/04 00:46:00;;;;;;;10.20;4.77;;;;;;;;;;5022544;28;20180;-80
2023/08/04 00:48:26;;;;;;;12.63;4.80;;;;;;;;;;5022356;28;20184;-80
2023/08/04 00:50:52;;;;;;;15.17;5.10;;;;;;;;;;5020900;28;20197;-80
2023/08/04 00:53:18;;;;;;;13.93;5.27;;;;;;;;;;5004818;28;20188;-80
2023/08/04 00:55:44;;;;;;;18.47;5.10;;;;;;;;;;5036986;28;20189;-80
2023/08/04 00:58:10;;;;;;;16.90;5.50;;;;;;;;;;5027637;28;20211;-80
2023/08/04 01:00:39;;;;;;;10.27;5.00;;;;;;;;;;5037701;28;20184;-80
2023/08/04 01:03:05;;;;;;;9.80;4.83;;;;;;;;;;5039070;28;20188;-77
2023/08/04 01:05:48;;;;;;;16.83;5.00;;;;;;;;;;5025198;28;20211;-77
2023/08/04 01:08:22;;;;;;;18.90;5.57;;;;;;;;;;5043497;28;20191;-78
2023/08/04 01:10:58;;;;;;;14.17;5.30;;;;;;;;;;5026255;28;20186;-77
2023/08/04 01:13:25;;;;;;;15.13;5.40;;;;;;;;;;5026414;28;20207;-77
2023/08/04 01:15:51;;;;;;;13.73;4.90;;;;;;;;;;5025956;28;20188;-77
2023/08/04 01:18:23;;;;;;;17.40;5.53;;;;;;;;;;5044586;28;20204;-76
2023/08/04 01:20:50;;;;;;;11.67;5.57;;;;;;;;;;5040717;28;20180;-76
2023/08/04 01:23:16;;;;;;;20.03;5.73;;;;;;;;;;5026029;28;20216;-76
2023/08/04 01:25:43;;;;;;;15.60;5.60;;;;;;;;;;5046657;28;20185;-76
2023/08/04 01:28:12;;;;;;;14.57;5.97;;;;;;;;;;5024138;28;20184;-76
2023/08/04 01:30:39;;;;;;;16.47;6.03;;;;;;;;;;5026907;28;20192;-76
2023/08/04 01:33:05;;;;;;;14.80;6.30;;;;;;;;;;5026850;28;20192;-76
2023/08/04 01:35:31;;;;;;;16.53;7.00;;;;;;;;;;5045636;28;20210;-77
2023/08/04 01:37:57;;;;;;;12.90;6.00;;;;;;;;;;5011053;28;20345;-76
2023/08/04 01:40:23;;;;;;;14.63;6.37;;;;;;;;;;5010323;28;20182;-77
2023/08/04 01:42:49;;;;;;;14.40;6.27;;;;;;;;;;5024538;28;20181;-77
2023/08/04 01:45:15;;;;;;;16.23;6.60;;;;;;;;;;5026235;28;20267;-76
2023/08/04 01:47:41;;;;;;;15.60;6.40;;;;;;;;;;5011803;28;20250;-77
2023/08/04 01:50:08;;;;;;;14.17;6.03;;;;;;;;;;5026226;28;20184;-76
2023/08/04 01:52:34;;;;;;;13.77;6.27;;;;;;;;;;5023475;28;20184;-77
2023/08/04 01:55:00;;;;;;;17.73;6.73;;;;;;;;;;5007125;28;20172;-77
2023/08/04 01:57:26;;;;;;;14.60;6.47;;;;;;;;;;5026203;28;20184;-77
2023/08/04 01:59:52;;;;;;;16.67;6.33;;;;;;;;;;5010000;28;20208;-77
2023/08/04 02:02:18;;;;;;;16.87;5.80;;;;;;;;;;5026212;28;20215;-76
2023/08/04 02:04:44;;;;;;;14.70;6.47;;;;;;;;;;5024716;28;20192;-77
2023/08/04 02:07:10;;;;;;;20.10;7.17;;;;;;;;;;5042685;28;20188;-77
2023/08/04 02:09:36;;;;;;;11.20;6.43;;;;;;;;;;5027135;28;20192;-81
2023/08/04 02:12:02;;;;;;;20.87;6.50;;;;;;;;;;5009430;28;20177;-81
2023/08/04 02:14:28;;;;;;;15.50;6.50;;;;;;;;;;5024193;28;20177;-81
2023/08/04 02:16:54;;;;;;;12.50;6.50;;;;;;;;;;5009618;28;20188;-80
2023/08/04 02:19:22;;;;;;;12.57;6.47;;;;;;;;;;5041413;28;20370;-81
2023/08/04 02:21:48;;;;;;;18.97;6.73;;;;;;;;;;5027659;28;20216;-81
2023/08/04 02:24:14;;;;;;;17.20;6.80;;;;;;;;;;5015139;28;20182;-77
2023/08/04 02:26:40;;;;;;;12.47;6.63;;;;;;;;;;5034379;28;20175;-77
2023/08/04 02:29:10;;;;;;;14.70;6.93;;;;;;;;;;5027616;28;20183;-77
2023/08/04 02:31:36;;;;;;;18.07;6.60;;;;;;;;;;5007616;28;20195;-77
2023/08/04 02:34:02;;;;;;;18.90;7.13;;;;;;;;;;5041393;28;20176;-77
2023/08/04 02:36:28;;;;;;;16.17;7.10;;;;;;;;;;5042923;28;20196;-77
2023/08/04 02:38:54;;;;;;;18.60;7.57;;;;;;;;;;5007727;28;20204;-77
2023/08/04 02:41:20;;;;;;;16.80;6.57;;;;;;;;;;5008187;28;20168;-77
2023/08/04 02:43:47;;;;;;;16.90;6.90;;;;;;;;;;5029893;28;20180;-77
2023/08/04 02:46:13;;;;;;;18.40;7.17;;;;;;;;;;5015456;28;20177;-76
2023/08/04 02:48:39;;;;;;;14.00;6.23;;;;;;;;;;5006165;28;20267;-77
2023/08/04 02:51:09;;;;;;;17.97;7.17;;;;;;;;;;5017116;28;20176;-77
2023/08/04 02:53:36;;;;;;;17.77;7.00;;;;;;;;;;5016927;28;20218;-77
2023/08/04 02:56:12;;;;;;;18.73;6.93;;;;;;;;;;5016643;28;20271;-77
2023/08/04 02:58:38;;;;;;;19.73;7.20;;;;;;;;;;5016708;28;20269;-77
2023/08/04 03:01:04;;;;;;;16.17;6.47;;;;;;;;;;5000607;28;20177;-77
2023/08/04 03:03:34;;;;;;;19.53;7.23;;;;;;;;;;5021344;28;20183;-77
2023/08/04 03:06:00;;;;;;;23.20;7.10;;;;;;;;;;5036393;28;20187;-76
2023/08/04 03:08:27;;;;;;;17.23;7.13;;;;;;;;;;5019826;28;20195;-76
2023/08/04 03:10:54;;;;;;;20.30;7.27;;;;;;;;;;5036304;28;20233;-76
2023/08/04 03:13:20;;;;;;;19.10;6.70;;;;;;;;;;5043278;28;20184;-76
2023/08/04 03:15:46;;;;;;;18.00;7.30;;;;;;;;;;5018530;28;20192;-80
2023/08/04 03:18:12;;;;;;;14.67;7.50;;;;;;;;;;5036175;28;20214;-80
2023/08/04 03:20:41;;;;;;;20.20;7.53;;;;;;;;;;5016250;28;20273;-80
2023/08/04 03:23:07;;;;;;;16.30;7.40;;;;;;;;;;5003791;28;20215;-81
2023/08/04 03:25:34;;;;;;;14.97;7.20;;;;;;;;;;5054024;28;20172;-81
2023/08/04 03:28:01;;;;;;;17.00;7.80;;;;;;;;;;5033979;28;20204;-80
2023/08/04 03:30:27;;;;;;;20.57;8.50;;;;;;;;;;5038110;28;20176;-81
2023/08/04 03:32:53;;;;;;;19.63;8.30;;;;;;;;;;5036254;28;20195;-77
2023/08/04 03:35:19;;;;;;;15.73;7.60;;;;;;;;;;5036165;28;20179;-77
2023/08/04 03:37:45;;;;;;;18.87;8.67;;;;;;;;;;5019636;28;20258;-76
2023/08/04 03:40:13;;;;;;;20.40;8.70;;;;;;;;;;5020073;28;20184;-77
2023/08/04 03:42:39;;;;;;;22.93;9.20;;;;;;;;;;5036396;28;20172;-76
2023/08/04 03:45:06;;;;;;;23.00;9.23;;;;;;;;;;5053676;28;20176;-77
2023/08/04 03:47:33;;;;;;;18.70;9.70;;;;;;;;;;5035817;28;20180;-80
2023/08/04 03:49:59;;;;;;;21.90;9.53;;;;;;;;;;5036569;28;20179;-80
2023/08/04 03:52:25;;;;;;;20.50;9.77;;;;;;;;;;5036182;28;20175;-80
2023/08/04 03:54:51;;;;;;;18.17;9.47;;;;;;;;;;5019794;28;20196;-80
2023/08/04 03:57:17;;;;;;;24.20;10.20;;;;;;;;;;5002951;28;20191;-80
2023/08/04 03:59:43;;;;;;;22.63;10.13;;;;;;;;;;5024808;28;20187;-80
2023/08/04 04:02:09;;;;;;;23.23;10.20;;;;;;;;;;5016289;28;20223;-80
2023/08/04 04:04:35;;;;;;;16.93;9.53;;;;;;;;;;5009990;28;20180;-77
2023/08/04 04:07:01;;;;;;;22.20;10.07;;;;;;;;;;5019773;28;20180;-77
2023/08/04 04:09:27;;;;;;;22.60;9.70;;;;;;;;;;5055630;28;20190;-77
2023/08/04 04:11:53;;;;;;;22.27;10.10;;;;;;;;;;5057259;28;20180;-77
2023/08/04 04:14:19;;;;;;;23.33;10.37;;;;;;;;;;5040168;28;20237;-77
2023/08/04 04:16:45;;;;;;;21.33;10.30;;;;;;;;;;5019850;28;20222;-77
2023/08/04 04:19:11;;;;;;;21.50;10.57;;;;;;;;;;5035178;28;20227;-77
2023/08/04 04:21:37;;;;;;;23.03;11.07;;;;;;;;;;5037441;28;20195;-76
2023/08/04 04:24:03;;;;;;;26.27;10.97;;;;;;;;;;5025853;28;20272;-76
2023/08/04 04:26:29;;;;;;;20.47;10.90;;;;;;;;;;5003405;28;20191;-76
2023/08/04 04:28:55;;;;;;;23.70;10.57;;;;;;;;;;5023780;28;20187;-76
2023/08/04 04:31:21;;;;;;;26.80;10.27;;;;;;;;;;5037093;28;20176;-80
2023/08/04 04:33:47;;;;;;;24.97;11.20;;;;;;;;;;5003497;28;20184;-80
2023/08/04 04:36:13;;;;;;;23.27;10.73;;;;;;;;;;5003871;28;20239;-80
2023/08/04 04:38:40;;;;;;;18.03;10.10;;;;;;;;;;5038909;28;20244;-77
2023/08/04 04:41:06;;;;;;;22.63;10.30;;;;;;;;;;5038867;28;20230;-77
2023/08/04 04:43:33;;;;;;;21.70;10.07;;;;;;;;;;5038842;28;20180;-77
2023/08/04 04:45:59;;;;;;;22.87;11.50;;;;;;;;;;5056661;28;20194;-77
2023/08/04 04:48:25;;;;;;;20.77;10.27;;;;;;;;;;5022434;28;20281;-76
2023/08/04 04:50:52;;;;;;;22.77;10.53;;;;;;;;;;5022492;28;20187;-76
2023/08/04 04:53:18;;;;;;;20.87;10.27;;;;;;;;;;5022506;28;20219;-77
2023/08/04 04:55:44;;;;;;;25.87;10.80;;;;;;;;;;5056637;28;20180;-76
2023/08/04 04:58:12;;;;;;;22.17;10.07;;;;;;;;;;5038672;28;20211;-76
2023/08/04 05:00:38;;;;;;;21.10;10.10;;;;;;;;;;5039183;28;20176;-74
2023/08/04 05:03:06;;;;;;;23.77;9.93;;;;;;;;;;5056361;28;20176;-74
2023/08/04 05:05:32;;;;;;;24.10;10.17;;;;;;;;;;5038428;28;20246;-74
2023/08/04 05:07:58;;;;;;;24.87;10.20;;;;;;;;;;5038715;28;20191;-75
2023/08/04 05:10:25;;;;;;;24.43;10.33;;;;;;;;;;5038324;28;20265;-75
2023/08/04 05:12:51;;;;;;;21.67;9.83;;;;;;;;;;5022295;28;20199;-79
2023/08/04 05:15:17;;;;;;;18.10;9.83;;;;;;;;;;5038685;28;20176;-79
2023/08/04 05:17:44;;;;;;;17.03;9.77;;;;;;;;;;5036427;28;20247;-76
2023/08/04 05:20:10;;;;;;;20.47;9.40;;;;;;;;;;5038174;28;20247;-75
2023/08/04 05:22:36;;;;;;;19.87;9.03;;;;;;;;;;5035835;28;20239;-76
2023/08/04 05:25:03;;;;;;;17.80;8.70;;;;;;;;;;5017741;28;20180;-76
2023/08/04 05:27:29;;;;;;;20.33;9.13;;;;;;;;;;5018766;28;20230;-76
2023/08/04 05:29:55;;;;;;;16.03;8.63;;;;;;;;;;5001946;28;20185;-76
2023/08/04 05:32:21;;;;;;;19.23;9.50;;;;;;;;;;5018836;28;20219;-76
2023/08/04 05:34:47;;;;;;;16.47;9.00;;;;;;;;;;5001895;28;20177;-76
2023/08/04 05:37:13;;;;;;;17.23;8.83;;;;;;;;;;5002046;28;20212;-76
2023/08/04 05:39:39;;;;;;;17.20;9.40;;;;;;;;;;5035125;28;20212;-76
2023/08/04 05:42:06;;;;;;;14.07;7.87;;;;;;;;;;5027494;28;20241;-76
2023/08/04 05:44:32;;;;;;;14.27;7.13;;;;;;;;;;5037775;28;20208;-78
2023/08/04 05:46:59;;;;;;;12.27;7.00;;;;;;;;;;5037857;28;20172;-78
2023/08/04 05:49:25;;;;;;;12.20;7.27;;;;;;;;;;5038130;28;20187;-80
2023/08/04 05:51:51;;;;;;;14.37;6.83;;;;;;;;;;5021531;28;20242;-79
2023/08/04 05:54:17;;;;;;;13.80;7.20;;;;;;;;;;5037920;28;20213;-79
2023/08/04 05:56:43;;;;;;;13.00;6.57;;;;;;;;;;5021499;28;20275;-79
2023/08/04 05:59:09;;;;;;;11.07;6.53;;;;;;;;;;5037639;28;20239;-79
2023/08/04 06:01:35;;;;;;;14.37;6.77;;;;;;;;;;5038090;28;20172;-79
2023/08/04 06:04:01;;;;;;;15.17;7.03;;;;;;;;;;5055488;28;20180;-79
2023/08/04 06:06:28;;;;;;;11.20;6.47;;;;;;;;;;5037433;28;20183;-79
2023/08/04 06:08:54;;;;;;;9.60;5.70;;;;;;;;;;5014452;28;20184;-79
2023/08/04 06:11:21;;;;;;;12.03;5.73;;;;;;;;;;5035010;28;20206;-80
2023/08/04 06:13:47;;;;;;;14.07;5.77;;;;;;;;;;5035139;28;20181;-80
2023/08/04 06:16:13;;;;;;;11.83;5.60;;;;;;;;;;5017370;28;20184;-79
2023/08/04 06:18:40;;;;;;;10.93;5.50;;;;;;;;;;5017464;28;20223;-75
2023/08/04 06:21:06;;;;;;;13.53;5.53;;;;;;;;;;5035293;28;20330;-75
2023/08/04 06:23:32;;;;;;;9.30;5.07;;;;;;;;;;5017346;28;20246;-75
2023/08/04 06:25:58;;;;;;;7.63;4.37;;;;;;;;;;5034959;28;20204;-75
2023/08/04 06:28:24;;;;;;;10.33;5.30;;;;;;;;;;5001009;28;20267;-75
2023/08/04 06:30:51;;;;;;;8.03;4.63;;;;;;;;;;5020691;28;20192;-75
2023/08/04 06:33:16;;;;;;;7.90;4.40;;;;;;;;;;5016573;28;20433;-75
2023/08/04 06:35:44;;;;;;;9.07;4.67;;;;;;;;;;5001211;28;20287;-75
2023/08/04 06:38:10;;;;;;;9.50;4.60;;;;;;;;;;5016663;28;20204;-75
2023/08/04 06:40:36;;;;;;;12.13;4.40;;;;;;;;;;5016869;28;20173;-75
2023/08/04 06:43:02;;;;;;;10.60;4.50;;;;;;;;;;5033057;28;20176;-75
2023/08/04 06:45:28;;;;;;;9.87;4.10;;;;;;;;;;5034718;28;20183;-75
2023/08/04 06:47:55;;;;;;;9.63;4.40;;;;;;;;;;5036600;28;20207;-75
2023/08/04 06:50:21;;;;;;;9.57;4.20;;;;;;;;;;5009836;28;20177;-75
2023/08/04 06:52:48;;;;;;;9.47;4.30;;;;;;;;;;5017539;28;20226;-75
2023/08/04 06:55:14;;;;;;;15.57;4.47;;;;;;;;;;5017665;28;20188;-75
2023/08/04 06:57:40;;;;;;;8.77;4.30;;;;;;;;;;5053122;28;20172;-75
2023/08/04 07:00:08;;;;;;;6.87;4.20;;;;;;;;;;5042954;28;20171;-75
2023/08/04 07:02:34;;;;;;;24.77;5.83;;;;;;;;;;5009149;28;20251;-75
2023/08/04 07:05:01;;;;;;;11.63;4.87;;;;;;;;;;5024480;28;20177;-75
2023/08/04 07:07:27;;;;;;;9.00;4.60;;;;;;;;;;5025197;28;20191;-75
2023/08/04 07:09:53;;;;;;;11.00;4.33;;;;;;;;;;5017335;28;20192;-76
2023/08/04 07:12:19;;;;;;;9.97;4.77;;;;;;;;;;5000090;28;20180;-76
2023/08/04 07:14:45;;;;;;;10.00;4.57;;;;;;;;;;5032299;28;20175;-76
2023/08/04 07:17:11;;;;;;;8.53;4.03;;;;;;;;;;5019836;28;20184;-76
2023/08/04 07:19:37;;;;;;;9.87;4.50;;;;;;;;;;5036497;28;20277;-76
2023/08/04 07:22:03;;;;;;;6.47;4.17;;;;;;;;;;5065042;22;20288;-75
2023/08/04 07:24:30;;;;;;;5.37;3.77;;;;;;;;;;5055973;28;20183;-76
2023/08/04 07:26:56;;;;;;;7.37;3.67;;;;;;;;;;5055117;28;20190;-75
2023/08/04 07:29:22;;;;;;;6.27;3.40;;;;;;;;;;5037513;28;20268;-75
2023/08/04 07:31:48;;;;;;;6.60;3.67;;;;;;;;;;5037163;28;20182;-75
2023/08/04 07:34:14;;;;;;;7.10;2.97;;;;;;;;;;5045441;28;20171;-75
2023/08/04 07:36:40;;;;;;;7.27;3.47;;;;;;;;;;5072898;28;20183;-75
2023/08/04 07:39:06;;;;;;;8.43;3.40;;;;;;;;;;5055965;28;20206;-75
2023/08/04 07:41:32;;;;;;;6.07;3.00;;;;;;;;;;5039303;28;20183;-75
2023/08/04 07:43:58;;;;;;;6.23;3.20;;;;;;;;;;5058342;28;20190;-75
2023/08/04 07:46:25;;;;;;;8.50;3.13;;;;;;;;;;5055769;28;20274;-75
2023/08/04 07:48:51;;;;;;;8.13;4.07;;;;;;;;;;5039859;28;20192;-75
2023/08/04 07:51:18;;;;;;;4.47;2.57;;;;;;;;;;5039611;28;20179;-76
2023/08/04 07:53:44;;;;;;;6.90;3.10;;;;;;;;;;5039526;28;20245;-76
2023/08/04 07:56:10;;;;;;;9.97;3.30;;;;;;;;;;5023304;28;20257;-77
2023/08/04 07:58:36;;;;;;;7.27;3.30;;;;;;;;;;5023474;28;20247;-76
2023/08/04 08:01:05;;;;;;;5.37;2.93;;;;;;;;;;5057337;28;20187;-76
2023/08/04 08:03:32;;;;;;;5.83;3.00;;;;;;;;;;5025279;28;20215;-76
2023/08/04 08:05:58;;;;;;;10.03;3.27;;;;;;;;;;5039400;28;20255;-76
2023/08/04 08:08:24;;;;;;;5.03;3.03;;;;;;;;;;5039518;28;20176;-76
2023/08/04 08:10:50;;;;;;;7.80;3.00;;;;;;;;;;5057186;28;20176;-76
2023/08/04 08:13:16;;;;;;;5.30;2.97;;;;;;;;;;5039691;28;20175;-77
2023/08/04 08:15:42;;;;;;;5.83;3.20;;;;;;;;;;5041041;28;20187;-76
2023/08/04 08:18:09;;;;;;;6.93;3.23;;;;;;;;;;5039266;28;20214;-76
2023/08/04 08:20:35;;;;;;;7.80;3.30;;;;;;;;;;5040549;28;20273;-76
2023/08/04 08:23:01;;;;;;;5.27;3.13;;;;;;;;;;5042300;28;20231;-75
2023/08/04 08:25:27;;;;;;;5.27;3.00;;;;;;;;;;5042404;28;20183;-75
2023/08/04 08:27:53;;;;;;;6.43;3.43;;;;;;;;;;5056812;28;20271;-75
2023/08/04 08:30:19;;;;;;;5.90;2.90;;;;;;;;;;5031254;28;20207;-75
2023/08/04 08:32:45;;;;;;;5.67;3.30;;;;;;;;;;5041405;28;20226;-76
2023/08/04 08:35:11;;;;;;;5.97;3.67;;;;;;;;;;5039969;28;20298;-76
2023/08/04 08:37:37;;;;;;;8.30;3.40;;;;;;;;;;5058771;28;20183;-76
2023/08/04 08:40:03;;;;;;;5.17;3.20;;;;;;;;;;5077022;28;20209;-76
2023/08/04 08:42:29;;;;;;;5.40;2.80;;;;;;;;;;5042866;28;20210;-76
2023/08/04 08:44:55;;;;;;;4.53;2.73;;;;;;;;;;5042958;28;20180;-76
2023/08/04 08:47:23;;;;;;;2.90;2.10;;;;;;;;;;5061072;28;20180;-80
2023/08/04 08:49:51;;;;;;;5.57;2.70;;;;;;;;;;5056996;28;20180;-80
2023/08/04 08:52:19;;;;;;;4.23;2.27;;;;;;;;;;5039170;28;20211;-80
2023/08/04 08:54:45;;;;;;;4.73;2.30;;;;;;;;;;5071664;28;20183;-80
2023/08/04 08:57:11;;;;;;;6.33;2.63;;;;;;;;;;5059068;28;20190;-80
2023/08/04 08:59:38;;;;;;;4.23;2.67;;;;;;;;;;5058719;28;20211;-80
2023/08/04 09:02:04;;;;;;;5.17;3.20;;;;;;;;;;5042503;28;20183;-80
2023/08/04 09:04:37;;;;;;;3.87;2.60;;;;;;;;;;5058755;28;20176;-77
2023/08/04 09:07:04;;;;;;;5.13;2.40;;;;;;;;;;5058783;28;20189;-76
2023/08/04 09:09:30;;;;;;;3.57;2.50;;;;;;;;;;5058938;28;20186;-77
2023/08/04 09:11:56;;;;;;;3.27;2.20;;;;;;;;;;5042285;28;20195;-77
2023/08/04 09:14:23;;;;;;;3.00;1.80;;;;;;;;;;5058495;28;20171;-77
2023/08/04 09:16:49;;;;;;;3.47;1.50;;;;;;;;;;5058361;28;20262;-77
2023/08/04 09:19:15;;;;;;;3.60;1.60;;;;;;;;;;5058029;28;20218;-77
2023/08/04 09:21:42;;;;;;;3.77;1.40;;;;;;;;;;5065521;28;20239;-78
2023/08/04 09:24:13;;;;;;;3.53;1.40;;;;;;;;;;5038904;28;20191;-76
2023/08/04 09:26:42;;;;;;;2.03;1.40;;;;;;;;;;5038471;28;20176;-76
2023/08/04 09:29:08;;;;;;;3.83;1.60;;;;;;;;;;5038234;28;20184;-76
2023/08/04 09:31:38;;;;;;;2.80;1.43;;;;;;;;;;5055946;28;20195;-76
2023/08/04 09:34:08;;;;;;;3.27;1.33;;;;;;;;;;5038037;28;20179;-76
2023/08/04 09:36:48;;;;;;;2.00;1.70;;;;;;;;;;5055735;28;20249;-76
2023/08/04 09:39:14;;;;;;;3.47;1.80;;;;;;;;;;5055519;28;20203;-76
2023/08/04 09:41:45;;;;;;;3.83;1.77;;;;;;;;;;5038251;28;20254;-76
2023/08/04 09:44:11;;;;;;;4.20;1.80;;;;;;;;;;5041045;28;20180;-76
2023/08/04 09:46:54;;;;;;;2.80;1.60;;;;;;;;;;5055565;28;20184;-76
2023/08/04 09:49:20;;;;;;;3.67;1.70;;;;;;;;;;5055406;28;20243;-76
2023/08/04 09:51:49;;;;;;;2.50;1.43;;;;;;;;;;5038363;28;20199;-76
2023/08/04 09:54:15;;;;;;;3.13;1.57;;;;;;;;;;5038521;28;20183;-80
2023/08/04 09:56:41;;;;;;;3.07;1.57;;;;;;;;;;5055371;28;20176;-80
2023/08/04 09:59:08;;;;;;;2.33;1.37;;;;;;;;;;5037970;28;20224;-80
2023/08/04 10:01:34;;;;;;;2.27;1.37;;;;;;;;;;5050931;28;20267;-80
2023/08/04 10:04:00;;;;;;;5.60;1.40;;;;;;;;;;5037830;28;20183;-80
2023/08/04 10:06:26;;;;;;;3.37;1.83;;;;;;;;;;5055310;28;20176;-80
2023/08/04 10:08:54;;;;;;;3.37;1.70;;;;;;;;;;5055114;28;20176;-80
2023/08/04 10:11:20;;;;;;;2.37;1.70;;;;;;;;;;5038006;28;20184;-81
2023/08/04 10:13:48;;;;;;;3.73;1.70;;;;;;;;;;5037768;28;20176;-81
2023/08/04 10:16:15;;;;;;;2.97;1.60;;;;;;;;;;5055329;28;20175;-80
2023/08/04 10:18:47;;;;;;;3.33;1.30;;;;;;;;;;5037330;28;20311;-80
2023/08/04 10:21:13;;;;;;;3.00;1.50;;;;;;;;;;5038102;28;20172;-80
2023/08/04 10:23:39;;;;;;;2.20;1.50;;;;;;;;;;5037693;28;20282;-80
2023/08/04 10:26:05;;;;;;;4.40;1.40;;;;;;;;;;5037300;28;20179;-80
2023/08/04 10:28:32;;;;;;;3.67;1.30;;;;;;;;;;5021288;28;20191;-77
2023/08/04 10:31:05;;;;;;;2.60;1.40;;;;;;;;;;5037277;28;20234;-76
2023/08/04 10:33:31;;;;;;;2.73;1.30;;;;;;;;;;5037571;28;20202;-76
2023/08/04 10:36:05;;;;;;;2.45;1.40;;;;;;;;;;5054665;28;20188;-76
2023/08/04 10:38:46;;;;;;;3.97;1.42;;;;;;;;;;5037524;28;20207;-76
2023/08/04 10:41:13;;;;;;;3.50;1.48;;;;;;;;;;5037349;28;20210;-76
2023/08/04 10:43:39;;;;;;;2.42;1.40;;;;;;;;;;5036953;28;20176;-76
2023/08/04 10:46:10;;;;;;;3.92;1.30;;;;;;;;;;5054787;28;20306;-77
2023/08/04 10:48:38;;;;;;;4.63;1.48;;;;;;;;;;5065900;28;20175;-77
2023/08/04 10:51:04;;;;;;;7.35;1.60;;;;;;;;;;5053291;28;20188;-77
2023/08/04 10:53:30;;;;;;;2.70;1.30;;;;;;;;;;5037046;28;20183;-77
2023/08/04 10:55:57;;;;;;;2.83;1.48;;;;;;;;;;5020277;28;20184;-77
2023/08/04 10:58:24;;;;;;;4.57;1.55;;;;;;;;;;5054846;28;20208;-77
2023/08/04 11:00:50;;;;;;;3.42;1.70;;;;;;;;;;5036679;28;20263;-77
2023/08/04 11:03:21;;;;;;;3.45;1.58;;;;;;;;;;5044045;28;20198;-78
2023/08/04 11:05:47;;;;;;;5.38;1.83;;;;;;;;;;5045944;28;20246;-78
2023/08/04 11:08:13;;;;;;;3.55;1.60;;;;;;;;;;5020178;28;20188;-78
2023/08/04 11:10:45;;;;;;;8.43;1.80;;;;;;;;;;5020450;28;20233;-78
2023/08/04 11:13:11;;;;;;;5.30;2.08;;;;;;;;;;5036472;28;20176;-78
2023/08/04 11:15:43;;;;;;;3.58;1.50;;;;;;;;;;5020924;28;20215;-78
2023/08/04 11:18:14;;;;;;;4.47;1.83;;;;;;;;;;5036167;28;20254;-81
2023/08/04 11:20:40;;;;;;;4.28;1.58;;;;;;;;;;5036426;28;20176;-81
2023/08/04 11:23:09;;;;;;;4.22;1.67;;;;;;;;;;5020264;28;20338;-81
2023/08/04 11:25:35;;;;;;;7.15;1.58;;;;;;;;;;5036472;28;20195;-81
2023/08/04 11:28:02;;;;;;;5.95;1.77;;;;;;;;;;5054158;28;20180;-76
2023/08/04 11:30:28;;;;;;;4.53;1.70;;;;;;;;;;5036278;28;20184;-76
2023/08/04 11:32:54;;;;;;;5.88;1.70;;;;;;;;;;5036190;28;20278;-76
2023/08/04 11:35:20;;;;;;;3.80;1.70;;;;;;;;;;5036441;28;20218;-81
2023/08/04 11:37:46;;;;;;;4.38;1.70;;;;;;;;;;5053852;28;20176;-81
2023/08/04 11:40:22;;;;;;;3.60;1.60;;;;;;;;;;5036680;28;20175;-81
2023/08/04 11:42:48;;;;;;;4.40;1.80;;;;;;;;;;5053966;28;20171;-81
2023/08/04 11:45:15;;;;;;;3.03;1.65;;;;;;;;;;5020184;28;20180;-78
2023/08/04 11:47:41;;;;;;;4.10;2.17;;;;;;;;;;5036151;28;20279;-77
2023/08/04 11:50:10;;;;;;;5.57;1.73;;;;;;;;;;5019740;28;20180;-77
2023/08/04 11:52:39;;;;;;;5.97;1.95;;;;;;;;;;5049538;28;20178;-81
2023/08/04 11:55:05;;;;;;;3.50;2.10;;;;;;;;;;5056504;28;20171;-81
2023/08/04 11:57:31;;;;;;;3.67;1.83;;;;;;;;;;5052309;28;20176;-81
2023/08/04 11:59:58;;;;;;;6.93;2.10;;;;;;;;;;5036977;28;20251;-81
2023/08/04 12:02:24;;;;;;;2.97;1.85;;;;;;;;;;5073770;28;20274;-81
2023/08/04 12:05:07;;;;;;;2.80;1.60;;;;;;;;;;5048234;28;20178;-81
2023/08/04 12:07:33;;;;;;;3.72;1.88;;;;;;;;;;5036067;28;20187;-76
2023/08/04 12:09:59;;;;;;;4.63;1.83;;;;;;;;;;5020049;28;20185;-76
2023/08/04 12:12:38;;;;;;;3.53;2.17;;;;;;;;;;5019622;28;20188;-76
2023/08/04 12:15:04;;;;;;;3.75;1.90;;;;;;;;;;5053741;28;20215;-76
2023/08/04 12:17:43;;;;;;;5.20;1.75;;;;;;;;;;5036334;28;20176;-81
2023/08/04 12:20:10;;;;;;;4.50;1.80;;;;;;;;;;5037718;28;20176;-81
2023/08/04 12:22:37;;;;;;;3.35;1.85;;;;;;;;;;5073893;28;20217;-81
2023/08/04 12:25:03;;;;;;;4.93;1.63;;;;;;;;;;5055795;28;20171;-77
2023/08/04 12:27:30;;;;;;;4.78;1.80;;;;;;;;;;5055734;28;20235;-77
2023/08/04 12:29:56;;;;;;;4.60;1.60;;;;;;;;;;5056181;28;20183;-77
2023/08/04 12:32:22;;;;;;;3.65;1.33;;;;;;;;;;5059010;28;20190;-77
2023/08/04 12:34:48;;;;;;;4.45;1.67;;;;;;;;;;5076627;28;20176;-77
2023/08/04 12:37:14;;;;;;;6.95;1.52;;;;;;;;;;5056122;28;20202;-77
2023/08/04 12:39:41;;;;;;;1.85;1.40;;;;;;;;;;5026952;28;20200;-77
2023/08/04 12:42:07;;;;;;;3.80;1.50;;;;;;;;;;5039519;28;20191;-78
2023/08/04 12:44:33;;;;;;;4.18;1.73;;;;;;;;;;5057180;28;20180;-78
2023/08/04 12:46:59;;;;;;;5.23;1.67;;;;;;;;;;5046041;28;20432;-78
2023/08/04 12:49:25;;;;;;;5.00;1.30;;;;;;;;;;5022557;28;20422;-77
2023/08/04 12:51:51;;;;;;;3.55;1.50;;;;;;;;;;5039151;28;20180;-77
2023/08/04 12:54:17;;;;;;;5.38;1.52;;;;;;;;;;5038938;28;20250;-77
2023/08/04 12:56:43;;;;;;;2.80;1.40;;;;;;;;;;5034693;28;20283;-77
2023/08/04 12:59:10;;;;;;;4.03;1.77;;;;;;;;;;5039408;28;20204;-77
2023/08/04 13:01:37;;;;;;;3.05;1.60;;;;;;;;;;5038864;28;20172;-77
2023/08/04 13:04:03;;;;;;;3.97;1.77;;;;;;;;;;5022259;28;20172;-77
2023/08/04 13:06:32;;;;;;;3.65;1.98;;;;;;;;;;5038641;28;20267;-77
2023/08/04 13:08:58;;;;;;;3.83;1.63;;;;;;;;;;5038568;28;20172;-77
2023/08/04 13:11:24;;;;;;;5.22;1.80;;;;;;;;;;5038806;28;20182;-77
2023/08/04 13:13:50;;;;;;;5.47;1.98;;;;;;;;;;5038564;28;20277;-77
2023/08/04 13:16:16;;;;;;;5.13;1.98;;;;;;;;;;5026810;28;20192;-76
2023/08/04 13:18:42;;;;;;;3.65;1.73;;;;;;;;;;5054805;28;20219;-76
2023/08/04 13:21:08;;;;;;;3.55;2.10;;;;;;;;;;5038616;28;20179;-76
2023/08/04 13:23:34;;;;;;;2.85;1.85;;;;;;;;;;5038367;28;20228;-76
2023/08/04 13:26:04;;;;;;;5.88;1.75;;;;;;;;;;5038675;28;20251;-77
2023/08/04 13:28:31;;;;;;;3.25;1.80;;;;;;;;;;5058068;28;20187;-77
2023/08/04 13:30:59;;;;;;;3.53;1.70;;;;;;;;;;5041791;28;20347;-76
2023/08/04 13:33:25;;;;;;;7.18;1.90;;;;;;;;;;5042487;28;20436;-76
2023/08/04 13:35:51;;;;;;;4.43;1.83;;;;;;;;;;5041252;28;20179;-76
2023/08/04 13:38:17;;;;;;;4.00;1.83;;;;;;;;;;5057117;28;20199;-76
2023/08/04 13:40:43;;;;;;;6.00;2.03;;;;;;;;;;5056301;28;20202;-77
2023/08/04 13:43:09;;;;;;;3.42;1.80;;;;;;;;;;5074836;28;20163;-77
2023/08/04 13:45:35;;;;;;;4.22;1.80;;;;;;;;;;5041917;28;20183;-77
2023/08/04 13:48:01;;;;;;;5.70;2.05;;;;;;;;;;5065362;28;20184;-76
2023/08/04 13:50:28;;;;;;;5.40;2.08;;;;;;;;;;5056865;28;20176;-76
2023/08/04 13:52:54;;;;;;;6.57;2.33;;;;;;;;;;5041179;28;20183;-75
2023/08/04 13:55:20;;;;;;;3.45;1.90;;;;;;;;;;5041356;28;20176;-76
2023/08/04 13:57:46;;;;;;;5.57;2.38;;;;;;;;;;5057765;28;20171;-76
2023/08/04 14:00:12;;;;;;;3.53;2.08;;;;;;;;;;5058045;28;20262;-76
2023/08/04 14:02:39;;;;;;;5.97;2.22;;;;;;;;;;5057656;28;20175;-79
2023/08/04 14:05:06;;;;;;;4.50;1.90;;;;;;;;;;5058014;28;20168;-79
2023/08/04 14:07:32;;;;;;;4.13;2.20;;;;;;;;;;5075354;28;20172;-79
2023/08/04 14:09:58;;;;;;;2.92;1.80;;;;;;;;;;5041095;28;20187;-79
2023/08/04 14:12:24;;;;;;;3.35;2.00;;;;;;;;;;5057624;28;20184;-80
2023/08/04 14:14:54;;;;;;;3.20;1.70;;;;;;;;;;5057487;28;20221;-79
2023/08/04 14:17:22;;;;;;;3.03;1.70;;;;;;;;;;5057482;28;20247;-79
2023/08/04 14:19:48;;;;;;;2.38;1.60;;;;;;;;;;5075030;28;20199;-78
2023/08/04 14:22:14;;;;;;;2.53;1.70;;;;;;;;;;5057143;28;20220;-76
2023/08/04 14:24:40;;;;;;;2.90;1.80;;;;;;;;;;5051200;28;20172;-76
2023/08/04 14:27:07;;;;;;;2.83;1.70;;;;;;;;;;5023883;28;20940;-76
2023/08/04 14:29:33;;;;;;;4.50;1.70;;;;;;;;;;5046144;28;20180;-76
2023/08/04 14:31:59;;;;;;;4.05;1.70;;;;;;;;;;5037003;28;20175;-76
2023/08/04 14:34:25;;;;;;;2.28;1.52;;;;;;;;;;5020821;28;20191;-75